sensor_id;sensor_type;location;lat;lon;timestamp;pressure;altitude;pressure_sealevel;temperature;humidity
80938;BME280;70395;51.382;7.074;2024-01-10T00:01:43;101799.44;;;-4.00;42.95
80938;BME280;70395;51.382;7.074;2024-01-10T00:04:09;101802.06;;;-4.00;42.99
80938;BME280;70395;51.382;7.074;2024-01-10T00:06:35;101804.72;;;-4.01;42.97
80938;BME280;70395;51.382;7.074;2024-01-10T00:09:00;101798.63;;;-4.03;42.87
80938;BME280;70395;51.382;7.074;2024-01-10T00:11:26;101799.50;;;-4.04;42.84
80938;BME280;70395;51.382;7.074;2024-01-10T00:13:52;101789.03;;;-4.06;43.00
80938;BME280;70395;51.382;7.074;2024-01-10T00:16:18;101787.31;;;-4.09;43.10
80938;BME280;70395;51.382;7.074;2024-01-10T00:18:44;101790.78;;;-4.10;42.97
80938;BME280;70395;51.382;7.074;2024-01-10T00:21:11;101789.94;;;-4.12;43.16
80938;BME280;70395;51.382;7.074;2024-01-10T00:23:36;101787.31;;;-4.12;42.93
80938;BME280;70395;51.382;7.074;2024-01-10T00:26:02;101782.94;;;-4.13;43.04
80938;BME280;70395;51.382;7.074;2024-01-10T00:28:28;101785.56;;;-4.13;42.86
80938;BME280;70395;51.382;7.074;2024-01-10T00:30:54;101782.09;;;-4.13;42.99
80938;BME280;70395;51.382;7.074;2024-01-10T00:33:20;101773.34;;;-4.12;43.02
80938;BME280;70395;51.382;7.074;2024-01-10T00:35:46;101774.22;;;-4.12;42.92
80938;BME280;70395;51.382;7.074;2024-01-10T00:38:13;101780.34;;;-4.13;43.01
80938;BME280;70395;51.382;7.074;2024-01-10T00:40:39;101772.50;;;-4.14;43.05
80938;BME280;70395;51.382;7.074;2024-01-10T00:43:05;101775.09;;;-4.13;43.00
80938;BME280;70395;51.382;7.074;2024-01-10T00:45:30;101774.25;;;-4.13;43.01
80938;BME280;70395;51.382;7.074;2024-01-10T00:47:57;101779.50;;;-4.13;43.16
80938;BME280;70395;51.382;7.074;2024-01-10T00:50:23;101775.13;;;-4.14;43.17
80938;BME280;70395;51.382;7.074;2024-01-10T00:52:49;101779.47;;;-4.15;43.42
80938;BME280;70395;51.382;7.074;2024-01-10T00:55:15;101763.78;;;-4.16;43.39
80938;BME280;70395;51.382;7.074;2024-01-10T00:57:40;101769.00;;;-4.15;43.24
80938;BME280;70395;51.382;7.074;2024-01-10T01:00:08;101763.75;;;-4.15;43.42
80938;BME280;70395;51.382;7.074;2024-01-10T01:02:35;101767.25;;;-4.14;43.43
80938;BME280;70395;51.382;7.074;2024-01-10T01:05:02;101769.00;;;-4.13;43.33
80938;BME280;70395;51.382;7.074;2024-01-10T01:07:28;101767.22;;;-4.13;43.42
80938;BME280;70395;51.382;7.074;2024-01-10T01:09:54;101762.00;;;-4.13;43.44
80938;BME280;70395;51.382;7.074;2024-01-10T01:12:20;101763.72;;;-4.10;43.49
80938;BME280;70395;51.382;7.074;2024-01-10T01:14:45;101762.84;;;-4.09;43.49
80938;BME280;70395;51.382;7.074;2024-01-10T01:17:13;101753.25;;;-4.09;43.41
80938;BME280;70395;51.382;7.074;2024-01-10T01:19:39;101755.84;;;-4.10;43.33
80938;BME280;70395;51.382;7.074;2024-01-10T01:22:04;101756.72;;;-4.10;43.43
80938;BME280;70395;51.382;7.074;2024-01-10T01:24:30;101756.72;;;-4.10;43.39
80938;BME280;70395;51.382;7.074;2024-01-10T01:26:56;101753.22;;;-4.10;43.41
80938;BME280;70395;51.382;7.074;2024-01-10T01:29:22;101751.50;;;-4.13;43.33
80938;BME280;70395;51.382;7.074;2024-01-10T01:31:50;101752.44;;;-4.15;43.42
80938;BME280;70395;51.382;7.074;2024-01-10T01:34:15;101752.44;;;-4.17;43.39
80938;BME280;70395;51.382;7.074;2024-01-10T01:36:41;101746.38;;;-4.21;43.43
80938;BME280;70395;51.382;7.074;2024-01-10T01:39:07;101748.13;;;-4.23;43.46
80938;BME280;70395;51.382;7.074;2024-01-10T01:41:33;101736.78;;;-4.25;43.43
80938;BME280;70395;51.382;7.074;2024-01-10T01:43:58;101743.78;;;-4.27;43.36
80938;BME280;70395;51.382;7.074;2024-01-10T01:46:24;101742.94;;;-4.29;43.55
80938;BME280;70395;51.382;7.074;2024-01-10T01:48:51;101730.72;;;-4.32;43.45
80938;BME280;70395;51.382;7.074;2024-01-10T01:51:20;101735.13;;;-4.34;43.60
80938;BME280;70395;51.382;7.074;2024-01-10T01:53:48;101739.50;;;-4.36;43.58
80938;BME280;70395;51.382;7.074;2024-01-10T01:56:16;101737.78;;;-4.38;43.42
80938;BME280;70395;51.382;7.074;2024-01-10T01:58:43;101734.31;;;-4.41;43.64
80938;BME280;70395;51.382;7.074;2024-01-10T02:01:11;101730.84;;;-4.43;43.68
80938;BME280;70395;51.382;7.074;2024-01-10T02:03:38;101733.44;;;-4.44;43.71
80938;BME280;70395;51.382;7.074;2024-01-10T02:06:04;101725.66;;;-4.47;43.76
80938;BME280;70395;51.382;7.074;2024-01-10T02:08:35;101730.88;;;-4.49;43.84
80938;BME280;70395;51.382;7.074;2024-01-10T02:11:02;101736.13;;;-4.50;43.84
80938;BME280;70395;51.382;7.074;2024-01-10T02:13:29;101734.41;;;-4.53;43.68
80938;BME280;70395;51.382;7.074;2024-01-10T02:15:56;101731.81;;;-4.55;43.92
80938;BME280;70395;51.382;7.074;2024-01-10T02:18:22;101733.56;;;-4.57;43.74
80938;BME280;70395;51.382;7.074;2024-01-10T02:20:49;101727.47;;;-4.59;43.97
80938;BME280;70395;51.382;7.074;2024-01-10T02:23:15;101730.09;;;-4.60;43.89
80938;BME280;70395;51.382;7.074;2024-01-10T02:25:41;101729.25;;;-4.63;43.86
80938;BME280;70395;51.382;7.074;2024-01-10T02:28:08;101721.41;;;-4.66;43.90
80938;BME280;70395;51.382;7.074;2024-01-10T02:30:35;101717.03;;;-4.67;43.99
80938;BME280;70395;51.382;7.074;2024-01-10T02:33:01;101717.97;;;-4.71;43.99
80938;BME280;70395;51.382;7.074;2024-01-10T02:35:27;101711.00;;;-4.73;43.99
80938;BME280;70395;51.382;7.074;2024-01-10T02:37:54;101717.13;;;-4.76;44.00
80938;BME280;70395;51.382;7.074;2024-01-10T02:40:21;101709.31;;;-4.79;44.18
80938;BME280;70395;51.382;7.074;2024-01-10T02:42:47;101718.03;;;-4.80;44.08
80938;BME280;70395;51.382;7.074;2024-01-10T02:45:13;101711.03;;;-4.81;44.27
80938;BME280;70395;51.382;7.074;2024-01-10T02:47:39;101721.53;;;-4.83;44.22
80938;BME280;70395;51.382;7.074;2024-01-10T02:50:06;101707.56;;;-4.83;44.28
80938;BME280;70395;51.382;7.074;2024-01-10T02:52:32;101704.97;;;-4.83;44.31
80938;BME280;70395;51.382;7.074;2024-01-10T02:54:58;101707.56;;;-4.83;44.12
80938;BME280;70395;51.382;7.074;2024-01-10T02:57:24;101705.84;;;-4.84;44.27
80938;BME280;70395;51.382;7.074;2024-01-10T02:59:50;101701.50;;;-4.86;44.33
80938;BME280;70395;51.382;7.074;2024-01-10T03:02:15;101704.13;;;-4.87;44.33
80938;BME280;70395;51.382;7.074;2024-01-10T03:04:42;101700.63;;;-4.88;44.28
80938;BME280;70395;51.382;7.074;2024-01-10T03:07:08;101700.66;;;-4.89;44.39
80938;BME280;70395;51.382;7.074;2024-01-10T03:09:33;101701.53;;;-4.90;44.33
80938;BME280;70395;51.382;7.074;2024-01-10T03:11:59;101704.16;;;-4.92;44.45
80938;BME280;70395;51.382;7.074;2024-01-10T03:14:25;101701.53;;;-4.93;44.38
80938;BME280;70395;51.382;7.074;2024-01-10T03:16:51;101710.28;;;-4.96;44.57
80938;BME280;70395;51.382;7.074;2024-01-10T03:19:17;101707.69;;;-4.98;44.30
80938;BME280;70395;51.382;7.074;2024-01-10T03:21:42;101704.19;;;-5.01;44.38
80938;BME280;70395;51.382;7.074;2024-01-10T03:24:08;101698.13;;;-5.03;44.37
80938;BME280;70395;51.382;7.074;2024-01-10T03:26:34;101695.53;;;-5.06;44.41
80938;BME280;70395;51.382;7.074;2024-01-10T03:29:00;101693.81;;;-5.11;44.33
80938;BME280;70395;51.382;7.074;2024-01-10T03:31:31;101691.22;;;-5.14;44.47
80938;BME280;70395;51.382;7.074;2024-01-10T03:33:58;101699.94;;;-5.18;44.59
80938;BME280;70395;51.382;7.074;2024-01-10T03:36:24;101692.16;;;-5.21;44.61
80938;BME280;70395;51.382;7.074;2024-01-10T03:38:50;101688.66;;;-5.25;44.38
80938;BME280;70395;51.382;7.074;2024-01-10T03:41:18;101686.06;;;-5.29;44.60
80938;BME280;70395;51.382;7.074;2024-01-10T03:43:44;101685.22;;;-5.33;44.76
80938;BME280;70395;51.382;7.074;2024-01-10T03:46:11;101683.50;;;-5.37;44.83
80938;BME280;70395;51.382;7.074;2024-01-10T03:48:37;101680.03;;;-5.43;44.88
80938;BME280;70395;51.382;7.074;2024-01-10T03:51:06;101681.81;;;-5.46;44.95
80938;BME280;70395;51.382;7.074;2024-01-10T03:53:32;101680.97;;;-5.48;44.95
80938;BME280;70395;51.382;7.074;2024-01-10T03:55:57;101675.72;;;-5.51;44.91
80938;BME280;70395;51.382;7.074;2024-01-10T03:58:24;101686.22;;;-5.53;45.00
80938;BME280;70395;51.382;7.074;2024-01-10T04:00:49;101688.81;;;-5.53;44.99
80938;BME280;70395;51.382;7.074;2024-01-10T04:03:15;101686.22;;;-5.56;45.05
80938;BME280;70395;51.382;7.074;2024-01-10T04:05:42;101685.34;;;-5.57;45.18
80938;BME280;70395;51.382;7.074;2024-01-10T04:08:08;101681.88;;;-5.59;45.17
80938;BME280;70395;51.382;7.074;2024-01-10T04:10:34;101675.78;;;-5.61;45.51
80938;BME280;70395;51.382;7.074;2024-01-10T04:12:59;101680.13;;;-5.61;45.55
80938;BME280;70395;51.382;7.074;2024-01-10T04:15:25;101675.78;;;-5.61;45.51
80938;BME280;70395;51.382;7.074;2024-01-10T04:17:51;101676.66;;;-5.62;45.42
80938;BME280;70395;51.382;7.074;2024-01-10T04:20:17;101678.41;;;-5.61;45.49
80938;BME280;70395;51.382;7.074;2024-01-10T04:22:43;101681.00;;;-5.61;45.37
80938;BME280;70395;51.382;7.074;2024-01-10T04:25:08;101672.28;;;-5.60;45.40
80938;BME280;70395;51.382;7.074;2024-01-10T04:27:34;101681.00;;;-5.59;45.62
80938;BME280;70395;51.382;7.074;2024-01-10T04:30:00;101672.28;;;-5.60;45.39
80938;BME280;70395;51.382;7.074;2024-01-10T04:32:26;101675.78;;;-5.61;45.63
80938;BME280;70395;51.382;7.074;2024-01-10T04:34:51;101685.34;;;-5.60;45.59
80938;BME280;70395;51.382;7.074;2024-01-10T04:37:18;101674.03;;;-5.59;45.56
80938;BME280;70395;51.382;7.074;2024-01-10T04:39:44;101666.19;;;-5.59;45.42
80938;BME280;70395;51.382;7.074;2024-01-10T04:42:13;101667.06;;;-5.60;45.54
80938;BME280;70395;51.382;7.074;2024-01-10T04:44:39;101662.69;;;-5.59;45.55
80938;BME280;70395;51.382;7.074;2024-01-10T04:47:05;101667.94;;;-5.59;45.70
80938;BME280;70395;51.382;7.074;2024-01-10T04:49:31;101667.91;;;-5.58;45.71
80938;BME280;70395;51.382;7.074;2024-01-10T04:51:57;101670.53;;;-5.56;45.52
80938;BME280;70395;51.382;7.074;2024-01-10T04:54:23;101669.66;;;-5.57;45.83
80938;BME280;70395;51.382;7.074;2024-01-10T04:56:48;101656.59;;;-5.57;45.78
80938;BME280;70395;51.382;7.074;2024-01-10T04:59:14;101654.81;;;-5.55;45.80
80938;BME280;70395;51.382;7.074;2024-01-10T05:01:40;101660.06;;;-5.56;45.69
80938;BME280;70395;51.382;7.074;2024-01-10T05:04:06;101661.81;;;-5.54;45.99
80938;BME280;70395;51.382;7.074;2024-01-10T05:06:32;101666.13;;;-5.53;45.88
80938;BME280;70395;51.382;7.074;2024-01-10T05:08:57;101657.41;;;-5.50;46.03
80938;BME280;70395;51.382;7.074;2024-01-10T05:11:25;101648.69;;;-5.47;46.12
80938;BME280;70395;51.382;7.074;2024-01-10T05:13:54;101655.66;;;-5.45;46.03
80938;BME280;70395;51.382;7.074;2024-01-10T05:16:20;101660.84;;;-5.40;46.22
80938;BME280;70395;51.382;7.074;2024-01-10T05:18:45;101653.88;;;-5.36;46.31
80938;BME280;70395;51.382;7.074;2024-01-10T05:21:12;101659.06;;;-5.33;46.31
80938;BME280;70395;51.382;7.074;2024-01-10T05:23:38;101654.66;;;-5.28;46.39
80938;BME280;70395;51.382;7.074;2024-01-10T05:26:06;101658.13;;;-5.26;46.14
80938;BME280;70395;51.382;7.074;2024-01-10T05:28:32;101667.72;;;-5.22;46.26
80938;BME280;70395;51.382;7.074;2024-01-10T05:30:59;101658.13;;;-5.20;46.23
80938;BME280;70395;51.382;7.074;2024-01-10T05:33:25;101661.56;;;-5.16;46.22
80938;BME280;70395;51.382;7.074;2024-01-10T05:35:51;101665.03;;;-5.12;46.29
80938;BME280;70395;51.382;7.074;2024-01-10T05:38:17;101662.41;;;-5.09;46.07
80938;BME280;70395;51.382;7.074;2024-01-10T05:40:43;101652.81;;;-5.07;45.98
80938;BME280;70395;51.382;7.074;2024-01-10T05:43:09;101657.13;;;-5.06;46.07
80938;BME280;70395;51.382;7.074;2024-01-10T05:45:38;101656.28;;;-5.06;46.29
80938;BME280;70395;51.382;7.074;2024-01-10T05:48:05;101662.38;;;-5.06;46.27
80938;BME280;70395;51.382;7.074;2024-01-10T05:50:32;101651.91;;;-5.04;46.09
80938;BME280;70395;51.382;7.074;2024-01-10T05:52:57;101652.78;;;-5.04;46.15
80938;BME280;70395;51.382;7.074;2024-01-10T05:55:23;101658.00;;;-5.02;46.09
80938;BME280;70395;51.382;7.074;2024-01-10T05:57:50;101653.66;;;-5.02;46.16
80938;BME280;70395;51.382;7.074;2024-01-10T06:00:16;101650.16;;;-5.02;46.14
80938;BME280;70395;51.382;7.074;2024-01-10T06:02:43;101658.88;;;-5.02;46.10
80938;BME280;70395;51.382;7.074;2024-01-10T06:05:10;101661.50;;;-5.02;46.12
80938;BME280;70395;51.382;7.074;2024-01-10T06:07:37;101658.88;;;-5.03;46.15
80938;BME280;70395;51.382;7.074;2024-01-10T06:10:04;101664.97;;;-5.03;46.18
80938;BME280;70395;51.382;7.074;2024-01-10T06:12:30;101671.94;;;-5.03;46.15
80938;BME280;70395;51.382;7.074;2024-01-10T06:14:56;101665.88;;;-5.05;46.23
80938;BME280;70395;51.382;7.074;2024-01-10T06:17:23;101659.75;;;-5.04;46.17
80938;BME280;70395;51.382;7.074;2024-01-10T06:19:49;101651.06;;;-5.06;46.28
80938;BME280;70395;51.382;7.074;2024-01-10T06:22:16;101657.13;;;-5.06;46.22
80938;BME280;70395;51.382;7.074;2024-01-10T06:24:43;101653.69;;;-5.06;46.40
80938;BME280;70395;51.382;7.074;2024-01-10T06:27:09;101653.69;;;-5.06;46.43
80938;BME280;70395;51.382;7.074;2024-01-10T06:29:36;101667.59;;;-5.06;46.46
80938;BME280;70395;51.382;7.074;2024-01-10T06:32:06;101677.22;;;-5.05;46.45
80938;BME280;70395;51.382;7.074;2024-01-10T06:34:33;101674.56;;;-5.03;46.28
80938;BME280;70395;51.382;7.074;2024-01-10T06:36:59;101672.81;;;-5.03;46.48
80938;BME280;70395;51.382;7.074;2024-01-10T06:39:25;101668.47;;;-5.02;46.46
80938;BME280;70395;51.382;7.074;2024-01-10T06:41:51;101671.97;;;-5.02;46.42
80938;BME280;70395;51.382;7.074;2024-01-10T06:44:17;101678.03;;;-5.01;46.53
80938;BME280;70395;51.382;7.074;2024-01-10T06:46:45;101674.56;;;-5.00;46.51
80938;BME280;70395;51.382;7.074;2024-01-10T06:49:12;101668.44;;;-4.99;46.61
80938;BME280;70395;51.382;7.074;2024-01-10T06:51:38;101665.81;;;-4.98;46.63
80938;BME280;70395;51.382;7.074;2024-01-10T06:54:05;101665.78;;;-4.96;46.60
80938;BME280;70395;51.382;7.074;2024-01-10T06:56:32;101659.66;;;-4.93;46.54
80938;BME280;70395;51.382;7.074;2024-01-10T06:58:59;101664.03;;;-4.92;46.72
80938;BME280;70395;51.382;7.074;2024-01-10T07:01:26;101661.41;;;-4.92;46.57
80938;BME280;70395;51.382;7.074;2024-01-10T07:03:53;101661.41;;;-4.92;46.77
80938;BME280;70395;51.382;7.074;2024-01-10T07:06:23;101673.59;;;-4.91;46.61
80938;BME280;70395;51.382;7.074;2024-01-10T07:08:50;101669.25;;;-4.91;46.59
80938;BME280;70395;51.382;7.074;2024-01-10T07:11:17;101668.38;;;-4.91;46.59
80938;BME280;70395;51.382;7.074;2024-01-10T07:13:43;101664.91;;;-4.92;46.71
80938;BME280;70395;51.382;7.074;2024-01-10T07:16:09;101666.63;;;-4.91;46.70
80938;BME280;70395;51.382;7.074;2024-01-10T07:18:36;101669.25;;;-4.91;46.77
80938;BME280;70395;51.382;7.074;2024-01-10T07:21:03;101663.13;;;-4.88;46.63
80938;BME280;70395;51.382;7.074;2024-01-10T07:23:29;101669.22;;;-4.88;46.79
80938;BME280;70395;51.382;7.074;2024-01-10T07:25:55;101669.22;;;-4.88;46.72
80938;BME280;70395;51.382;7.074;2024-01-10T07:28:21;101674.44;;;-4.86;46.73
80938;BME280;70395;51.382;7.074;2024-01-10T07:30:48;101672.69;;;-4.84;46.84
80938;BME280;70395;51.382;7.074;2024-01-10T07:33:13;101669.19;;;-4.83;46.87
80938;BME280;70395;51.382;7.074;2024-01-10T07:35:39;101670.06;;;-4.82;47.02
80938;BME280;70395;51.382;7.074;2024-01-10T07:38:06;101667.44;;;-4.84;46.94
80938;BME280;70395;51.382;7.074;2024-01-10T07:40:35;101667.44;;;-4.82;46.91
80938;BME280;70395;51.382;7.074;2024-01-10T07:43:02;101667.44;;;-4.79;46.85
80938;BME280;70395;51.382;7.074;2024-01-10T07:45:28;101670.91;;;-4.77;46.92
80938;BME280;70395;51.382;7.074;2024-01-10T07:47:54;101672.63;;;-4.75;46.76
80938;BME280;70395;51.382;7.074;2024-01-10T07:50:20;101663.88;;;-4.72;46.72
80938;BME280;70395;51.382;7.074;2024-01-10T07:52:46;101660.38;;;-4.71;46.82
80938;BME280;70395;51.382;7.074;2024-01-10T07:55:13;101659.50;;;-4.70;46.81
80938;BME280;70395;51.382;7.074;2024-01-10T07:57:39;101656.88;;;-4.70;46.72
80938;BME280;70395;51.382;7.074;2024-01-10T08:00:08;101657.75;;;-4.71;46.84
80938;BME280;70395;51.382;7.074;2024-01-10T08:02:37;101661.22;;;-4.69;46.86
80938;BME280;70395;51.382;7.074;2024-01-10T08:05:06;101664.69;;;-4.65;46.89
80938;BME280;70395;51.382;7.074;2024-01-10T08:07:37;101667.25;;;-4.62;46.86
80938;BME280;70395;51.382;7.074;2024-01-10T08:10:06;101663.75;;;-4.59;46.84
80938;BME280;70395;51.382;7.074;2024-01-10T08:12:33;101666.31;;;-4.53;46.76
80938;BME280;70395;51.382;7.074;2024-01-10T08:14:59;101671.50;;;-4.47;46.72
80938;BME280;70395;51.382;7.074;2024-01-10T08:17:25;101669.69;;;-4.42;46.80
80938;BME280;70395;51.382;7.074;2024-01-10T08:19:51;101673.13;;;-4.35;46.80
80938;BME280;70395;51.382;7.074;2024-01-10T08:22:17;101671.31;;;-4.30;46.70
80938;BME280;70395;51.382;7.074;2024-01-10T08:24:46;101670.41;;;-4.24;46.71
80938;BME280;70395;51.382;7.074;2024-01-10T08:27:12;101663.38;;;-4.19;46.65
80938;BME280;70395;51.382;7.074;2024-01-10T08:29:38;101672.94;;;-4.14;46.57
80938;BME280;70395;51.382;7.074;2024-01-10T08:32:05;101670.28;;;-4.13;46.66
80938;BME280;70395;51.382;7.074;2024-01-10T08:34:31;101671.22;;;-4.15;46.86
80938;BME280;70395;51.382;7.074;2024-01-10T08:36:56;101672.94;;;-4.14;46.77
80938;BME280;70395;51.382;7.074;2024-01-10T08:39:22;101681.63;;;-4.11;46.79
80938;BME280;70395;51.382;7.074;2024-01-10T08:41:50;101684.19;;;-4.06;46.78
80938;BME280;70395;51.382;7.074;2024-01-10T08:44:16;101668.44;;;-4.04;46.44
80938;BME280;70395;51.382;7.074;2024-01-10T08:46:42;101673.66;;;-4.03;46.59
80938;BME280;70395;51.382;7.074;2024-01-10T08:49:07;101684.13;;;-3.98;46.72
80938;BME280;70395;51.382;7.074;2024-01-10T08:51:33;101683.16;;;-3.92;46.64
80938;BME280;70395;51.382;7.074;2024-01-10T08:54:00;101683.13;;;-3.89;46.66
80938;BME280;70395;51.382;7.074;2024-01-10T08:56:26;101677.88;;;-3.88;46.79
80938;BME280;70395;51.382;7.074;2024-01-10T08:58:52;101677.88;;;-3.86;46.86
80938;BME280;70395;51.382;7.074;2024-01-10T09:01:18;101678.63;;;-3.76;46.67
80938;BME280;70395;51.382;7.074;2024-01-10T09:03:46;101687.19;;;-3.63;46.82
80938;BME280;70395;51.382;7.074;2024-01-10T09:06:12;101686.97;;;-3.44;46.73
80938;BME280;70395;51.382;7.074;2024-01-10T09:08:38;101679.66;;;-3.23;46.82
80938;BME280;70395;51.382;7.074;2024-01-10T09:11:05;101683.69;;;-2.99;46.69
80938;BME280;70395;51.382;7.074;2024-01-10T09:13:31;101681.50;;;-2.72;46.82
80938;BME280;70395;51.382;7.074;2024-01-10T09:15:57;101690.44;;;-2.30;46.44
80938;BME280;70395;51.382;7.074;2024-01-10T09:18:23;101695.59;;;-1.77;46.14
80938;BME280;70395;51.382;7.074;2024-01-10T09:20:49;101678.50;;;-1.16;46.03
80938;BME280;70395;51.382;7.074;2024-01-10T09:23:15;101688.38;;;-0.51;45.74
80938;BME280;70395;51.382;7.074;2024-01-10T09:25:41;101697.16;;;0.16;45.36
80938;BME280;70395;51.382;7.074;2024-01-10T09:28:07;101692.59;;;0.82;44.96
80938;BME280;70395;51.382;7.074;2024-01-10T09:30:33;101691.19;;;1.28;44.71
80938;BME280;70395;51.382;7.074;2024-01-10T09:32:59;101695.19;;;1.65;44.27
80938;BME280;70395;51.382;7.074;2024-01-10T09:35:26;101693.13;;;1.99;43.82
80938;BME280;70395;51.382;7.074;2024-01-10T09:37:52;101696.28;;;2.35;43.51
80938;BME280;70395;51.382;7.074;2024-01-10T09:40:19;101685.88;;;2.77;43.31
80938;BME280;70395;51.382;7.074;2024-01-10T09:42:51;101699.50;;;3.12;43.10
80938;BME280;70395;51.382;7.074;2024-01-10T09:45:20;101687.16;;;3.34;42.80
80938;BME280;70395;51.382;7.074;2024-01-10T09:47:53;101695.03;;;3.35;41.80
80938;BME280;70395;51.382;7.074;2024-01-10T09:50:21;101692.38;;;3.14;42.08
80938;BME280;70395;51.382;7.074;2024-01-10T09:52:58;101700.03;;;3.00;41.99
80938;BME280;70395;51.382;7.074;2024-01-10T09:55:35;101686.69;;;3.01;42.21
80938;BME280;70395;51.382;7.074;2024-01-10T09:58:05;101695.94;;;2.91;41.35
80938;BME280;70395;51.382;7.074;2024-01-10T10:00:34;101678.97;;;2.95;41.65
80938;BME280;70395;51.382;7.074;2024-01-10T10:03:04;101688.38;;;3.25;41.04
80938;BME280;70395;51.382;7.074;2024-01-10T10:05:30;101681.88;;;3.55;40.82
80938;BME280;70395;51.382;7.074;2024-01-10T10:07:56;101684.84;;;3.68;40.29
80938;BME280;70395;51.382;7.074;2024-01-10T10:10:24;101690.22;;;3.87;40.04
80938;BME280;70395;51.382;7.074;2024-01-10T10:12:53;101686.44;;;3.93;38.96
80938;BME280;70395;51.382;7.074;2024-01-10T10:15:24;101686.81;;;4.04;39.64
80938;BME280;70395;51.382;7.074;2024-01-10T10:17:54;101685.47;;;4.15;38.87
80938;BME280;70395;51.382;7.074;2024-01-10T10:20:28;101686.91;;;4.03;38.29
80938;BME280;70395;51.382;7.074;2024-01-10T10:23:03;101684.41;;;3.98;38.58
80938;BME280;70395;51.382;7.074;2024-01-10T10:25:46;101681.25;;;4.30;38.55
80938;BME280;70395;51.382;7.074;2024-01-10T10:28:15;101681.19;;;4.51;37.77
80938;BME280;70395;51.382;7.074;2024-01-10T10:30:41;101682.78;;;4.92;37.44
80938;BME280;70395;51.382;7.074;2024-01-10T10:33:06;101683.03;;;5.43;37.16
80938;BME280;70395;51.382;7.074;2024-01-10T10:35:34;101676.09;;;5.92;37.04
80938;BME280;70395;51.382;7.074;2024-01-10T10:38:00;101671.56;;;6.44;37.11
80938;BME280;70395;51.382;7.074;2024-01-10T10:40:26;101666.91;;;7.13;36.40
80938;BME280;70395;51.382;7.074;2024-01-10T10:42:56;101671.00;;;7.49;34.84
80938;BME280;70395;51.382;7.074;2024-01-10T10:45:24;101674.47;;;7.66;34.63
80938;BME280;70395;51.382;7.074;2024-01-10T10:48:01;101675.22;;;7.68;34.58
80938;BME280;70395;51.382;7.074;2024-01-10T10:50:36;101669.53;;;7.89;34.10
80938;BME280;70395;51.382;7.074;2024-01-10T10:53:06;101672.13;;;8.05;33.20
80938;BME280;70395;51.382;7.074;2024-01-10T10:55:34;101670.03;;;8.10;33.32
80938;BME280;70395;51.382;7.074;2024-01-10T10:58:03;101668.97;;;8.13;32.91
80938;BME280;70395;51.382;7.074;2024-01-10T11:00:31;101662.38;;;8.19;33.05
80938;BME280;70395;51.382;7.074;2024-01-10T11:02:58;101668.53;;;8.49;33.25
80938;BME280;70395;51.382;7.074;2024-01-10T11:05:25;101658.75;;;9.05;32.63
80938;BME280;70395;51.382;7.074;2024-01-10T11:07:51;101656.41;;;9.80;32.17
80938;BME280;70395;51.382;7.074;2024-01-10T11:10:24;101657.44;;;10.67;30.84
80938;BME280;70395;51.382;7.074;2024-01-10T11:16:52;101653.81;;;10.68;30.54
80938;BME280;70395;51.382;7.074;2024-01-10T11:24:58;101659.47;;;10.13;30.98
80938;BME280;70395;51.382;7.074;2024-01-10T11:27:26;101663.84;;;10.40;30.54
80938;BME280;70395;51.382;7.074;2024-01-10T11:29:52;101650.56;;;10.76;30.38
80938;BME280;70395;51.382;7.074;2024-01-10T11:32:22;101657.63;;;11.02;29.69
80938;BME280;70395;51.382;7.074;2024-01-10T11:34:58;101656.69;;;11.14;29.16
80938;BME280;70395;51.382;7.074;2024-01-10T11:37:43;101651.34;;;10.90;29.31
80938;BME280;70395;51.382;7.074;2024-01-10T11:40:12;101645.03;;;10.66;29.38
80938;BME280;70395;51.382;7.074;2024-01-10T11:42:47;101638.00;;;10.39;29.39
80938;BME280;70395;51.382;7.074;2024-01-10T11:48:00;101631.13;;;9.58;29.86
80938;BME280;70395;51.382;7.074;2024-01-10T11:50:27;101631.56;;;9.39;29.81
80938;BME280;70395;51.382;7.074;2024-01-10T11:52:53;101625.72;;;9.32;29.63
80938;BME280;70395;51.382;7.074;2024-01-10T11:55:49;101622.75;;;9.23;29.98
80938;BME280;70395;51.382;7.074;2024-01-10T11:58:17;101621.13;;;9.34;30.05
80938;BME280;70395;51.382;7.074;2024-01-10T12:00:43;101620.41;;;9.58;30.21
80938;BME280;70395;51.382;7.074;2024-01-10T12:03:11;101622.53;;;9.79;29.70
80938;BME280;70395;51.382;7.074;2024-01-10T12:05:38;101624.69;;;9.74;29.38
80938;BME280;70395;51.382;7.074;2024-01-10T12:08:08;101622.22;;;9.57;29.64
80938;BME280;70395;51.382;7.074;2024-01-10T12:10:34;101625.44;;;9.50;29.88
80938;BME280;70395;51.382;7.074;2024-01-10T12:13:03;101622.97;;;9.33;29.85
80938;BME280;70395;51.382;7.074;2024-01-10T12:15:29;101618.56;;;9.32;29.82
80938;BME280;70395;51.382;7.074;2024-01-10T12:17:56;101620.06;;;9.23;30.14
80938;BME280;70395;51.382;7.074;2024-01-10T12:20:21;101623.78;;;9.08;29.98
80938;BME280;70395;51.382;7.074;2024-01-10T12:22:47;101621.03;;;8.82;29.85
80938;BME280;70395;51.382;7.074;2024-01-10T12:25:13;101622.16;;;8.50;29.63
80938;BME280;70395;51.382;7.074;2024-01-10T12:27:40;101621.38;;;8.05;30.23
80938;BME280;70395;51.382;7.074;2024-01-10T12:30:07;101612.97;;;7.82;30.56
80938;BME280;70395;51.382;7.074;2024-01-10T12:32:33;101618.59;;;7.77;30.35
80938;BME280;70395;51.382;7.074;2024-01-10T12:35:04;101619.28;;;7.81;30.27
80938;BME280;70395;51.382;7.074;2024-01-10T12:37:31;101625.66;;;7.93;30.35
80938;BME280;70395;51.382;7.074;2024-01-10T12:39:57;101619.84;;;8.01;30.24
80938;BME280;70395;51.382;7.074;2024-01-10T12:42:23;101613.06;;;7.95;30.31
80938;BME280;70395;51.382;7.074;2024-01-10T12:44:49;101610.41;;;7.81;30.46
80938;BME280;70395;51.382;7.074;2024-01-10T12:47:22;101609.91;;;7.59;30.35
80938;BME280;70395;51.382;7.074;2024-01-10T12:49:50;101610.16;;;7.40;30.51
80938;BME280;70395;51.382;7.074;2024-01-10T12:52:16;101611.38;;;7.19;30.70
80938;BME280;70395;51.382;7.074;2024-01-10T12:54:42;101608.56;;;7.06;30.68
80938;BME280;70395;51.382;7.074;2024-01-10T12:57:09;101603.28;;;6.90;30.79
80938;BME280;70395;51.382;7.074;2024-01-10T12:59:35;101609.66;;;6.71;30.99
80938;BME280;70395;51.382;7.074;2024-01-10T13:02:01;101606.16;;;6.55;31.15
80938;BME280;70395;51.382;7.074;2024-01-10T13:04:27;101614.84;;;6.42;31.09